Shinkyo Maru No.3 — JD3397 — position and weather

sailwx.info

Track history (hours):
 
Tides and Currents Weather Stations Pressure Air Temp Water Temp Dewpoint Dewpoint Depression Visibility Wind Speed Wind Dir Waves Ship Positions

Shinkyo Maru No.3

Last reported at 2017-Oct-19 04:58 UTC. Time now 2017-Oct-19 14:29 UTC.
Position N 34°38' E 134°56'.

Length 55 m; draft 3 m.

Type: Cargo ship. MMSI: 431003752.

Date/timePositionNaut miles runAvg speedWind from/ knotsBaromVisibWave heightAir tempDewpointWater temp
2017-Oct-19 04:58N 34°38' E 134°56'5 9.3
2017-Oct-19 04:27N 34°37' E 135°02'4 8.9
2017-Oct-19 04:01N 34°37' E 135°06'612.0
2017-Oct-19 03:30N 34°38' E 135°13'612.1
2017-Oct-19 03:00N 34°40' E 135°20'4 7.7
2017-Oct-19 02:30N 34°42' E 135°24'0 0.0
2017-Oct-18 19:53N 34°42' E 135°24'0 0.7
2017-Oct-18 19:30N 34°42' E 135°24'4 8.6
2017-Oct-18 19:00N 34°39' E 135°20'5 9.9
2017-Oct-18 18:30N 34°37' E 135°14'5 9.9
2017-Oct-18 18:00N 34°35' E 135°09'511.0
2017-Oct-18 17:30N 34°36' E 135°02'5 0.5
2017-Oct-18 06:49N 34°38' E 134°56'411.5
2017-Oct-18 06:27N 34°37' E 135°01'510.6
2017-Oct-18 06:00N 34°37' E 135°07'612.2
2017-Oct-18 05:30N 34°38' E 135°14'5 9.1
2017-Oct-18 05:00N 34°42' E 135°15'0 0.0
2017-Oct-18 04:21N 34°42' E 135°15'0 0.0
2017-Oct-18 03:52N 34°42' E 135°15'0 0.0
2017-Oct-18 03:28N 34°42' E 135°15'0 0.0
2017-Oct-18 02:52N 34°42' E 135°15'0 0.0
2017-Oct-18 02:28N 34°42' E 135°15'0 0.0
2017-Oct-18 01:58N 34°42' E 135°15'0 0.0
2017-Oct-18 01:27N 34°42' E 135°15'0 0.0
2017-Oct-18 00:58N 34°42' E 135°15'0 0.0
2017-Oct-18 00:28N 34°42' E 135°15'0 0.0
2017-Oct-17 23:52N 34°42' E 135°15'0 0.0
2017-Oct-17 23:28N 34°42' E 135°15'0 0.0
2017-Oct-17 22:58N 34°42' E 135°15'0 0.0
2017-Oct-17 22:22N 34°42' E 135°15'0 0.0
2017-Oct-17 21:46N 34°42' E 135°15'0 0.0
2017-Oct-17 21:16N 34°42' E 135°15'0 0.0
2017-Oct-17 20:58N 34°42' E 135°15'0 0.0
2017-Oct-17 20:22N 34°42' E 135°15'0 0.0
2017-Oct-17 19:58N 34°42' E 135°15'0 0.0
2017-Oct-17 19:28N 34°42' E 135°15'0 0.0
2017-Oct-17 18:58N 34°42' E 135°15'0 0.0
2017-Oct-17 18:22N 34°42' E 135°15'0 0.0
2017-Oct-17 17:58N 34°42' E 135°15'0 0.0
2017-Oct-17 17:28N 34°42' E 135°15'0 0.0
2017-Oct-17 16:51N 34°42' E 135°15'0 0.0
2017-Oct-17 16:27N 34°42' E 135°15'0 0.0
2017-Oct-17 15:57N 34°42' E 135°15'0 0.3
2017-Oct-17 15:30N 34°42' E 135°15'4 8.4
2017-Oct-17 15:00N 34°38' E 135°15'510.6
2017-Oct-17 14:30N 34°36' E 135°09'510.6
2017-Oct-17 14:00N 34°36' E 135°02'611.9
2017-Oct-17 13:28N 34°37' E 134°55'1 0.1
2017-Oct-17 05:17N 34°38' E 134°56'510.6
2017-Oct-17 04:50N 34°37' E 135°02'3 8.5
2017-Oct-17 04:29N 34°36' E 135°05'511.4
2017-Oct-17 04:00N 34°37' E 135°12'911.7
2017-Oct-17 03:12N 34°36' E 135°23'211.8
2017-Oct-17 03:00N 34°35' E 135°26'0 0.4
2017-Oct-17 01:52N 34°35' E 135°26'3 8.2
2017-Oct-17 01:30N 34°38' E 135°24'1 1.9
2017-Oct-17 00:47N 34°37' E 135°25'0 0.0
2017-Oct-16 23:57N 34°37' E 135°25'0 0.0
2017-Oct-16 23:30N 34°37' E 135°25'0 0.0
2017-Oct-16 22:59N 34°37' E 135°25'0 0.0
2017-Oct-16 22:13N 34°37' E 135°25'0 0.0
2017-Oct-16 21:55N 34°37' E 135°25'0 0.0
2017-Oct-16 18:59N 34°37' E 135°25'0 0.0
2017-Oct-16 18:30N 34°37' E 135°25'1 2.8
2017-Oct-16 18:00N 34°38' E 135°24'510.0
2017-Oct-16 17:30N 34°36' E 135°18'510.8
2017-Oct-16 17:00N 34°35' E 135°12'612.1
2017-Oct-16 16:31N 34°35' E 135°04'812.9
2017-Oct-16 15:55N 34°37' E 134°55'613.0
2017-Oct-16 15:29N 34°40' E 134°50'6 0.7
2017-Oct-16 07:03N 34°38' E 134°56'212.9
2017-Oct-16 06:55N 34°38' E 134°58'512.4
2017-Oct-16 06:30N 34°36' E 135°04'611.6
2017-Oct-16 06:00N 34°37' E 135°11'5 9.1
2017-Oct-16 05:30N 34°41' E 135°15'1 1.9
2017-Oct-16 04:45N 34°42' E 135°15'0 0.0
2017-Oct-16 04:27N 34°42' E 135°15'0 0.0
2017-Oct-16 03:57N 34°42' E 135°15'0 0.0
2017-Oct-16 03:21N 34°42' E 135°15'0 0.0
2017-Oct-16 02:57N 34°42' E 135°15'0 0.0
2017-Oct-16 02:15N 34°42' E 135°15'0 0.0
2017-Oct-16 02:00N 34°42' E 135°15'0 0.0
2017-Oct-16 01:30N 34°42' E 135°15'0 0.0
2017-Oct-16 01:00N 34°42' E 135°15'1 2.6
2017-Oct-16 00:30N 34°41' E 135°15'5 8.9
2017-Oct-16 00:00N 34°37' E 135°13'5 9.8
2017-Oct-15 23:30N 34°35' E 135°07'510.0
2017-Oct-15 23:00N 34°37' E 135°02'6 9.7
2017-Oct-15 22:23N 34°37' E 134°54'  
2017-Oct-13 06:33N 34°38' E 134°57'215.3
2017-Oct-13 06:27N 34°38' E 134°59'613.5
2017-Oct-13 05:58N 34°36' E 135°06'611.9
2017-Oct-13 05:30N 34°35' E 135°13'911.0
2017-Oct-13 04:40N 34°31' E 135°24'0 0.1
2017-Oct-13 04:29N 34°31' E 135°24'0 0.0
2017-Oct-13 04:00N 34°31' E 135°24'0 0.0
2017-Oct-13 03:30N 34°31' E 135°24'0 0.0
2017-Oct-13 03:00N 34°31' E 135°24'0 0.4
2017-Oct-13 02:30N 34°31' E 135°23'1 1.2
2017-Oct-13 02:00N 34°32' E 135°23'0 0.1
2017-Oct-13 01:30N 34°32' E 135°23'4 7.3
2017-Oct-13 01:00N 34°35' E 135°22'4 2.0
2017-Oct-12 23:06N 34°37' E 135°26'0 0.0
2017-Oct-12 23:00N 34°37' E 135°26'0 0.0
2017-Oct-12 22:30N 34°37' E 135°26'0 0.0
2017-Oct-12 21:54N 34°37' E 135°26'0 0.0
2017-Oct-12 21:30N 34°37' E 135°26'0 0.0
2017-Oct-12 21:00N 34°37' E 135°26'0 0.0
2017-Oct-12 20:18N 34°37' E 135°26'0 0.0
2017-Oct-12 19:54N 34°37' E 135°26'0 0.0
2017-Oct-12 19:24N 34°37' E 135°26'0 0.0
2017-Oct-12 19:00N 34°37' E 135°26'0 0.0
2017-Oct-12 18:18N 34°37' E 135°26'0 0.0
2017-Oct-12 17:54N 34°37' E 135°26'0 0.0
2017-Oct-12 17:30N 34°37' E 135°26'0 0.0
2017-Oct-12 17:00N 34°37' E 135°26'0 0.0
2017-Oct-12 16:30N 34°37' E 135°26'0 0.1
2017-Oct-12 16:00N 34°37' E 135°26'0 0.1
2017-Oct-12 15:12N 34°37' E 135°26'0 0.0
2017-Oct-12 14:54N 34°37' E 135°26'1 2.0
2017-Oct-12 14:30N 34°37' E 135°25'510.7
2017-Oct-12 14:00N 34°40' E 135°19'4 7.9
2017-Oct-12 13:30N 34°42' E 135°15'0 0.0
2017-Oct-12 12:59N 34°42' E 135°15'0 0.0
2017-Oct-12 12:29N 34°42' E 135°15'0 0.0
2017-Oct-12 11:53N 34°42' E 135°15'0 0.0
2017-Oct-12 11:29N 34°42' E 135°15'0 0.0
2017-Oct-12 10:35N 34°42' E 135°15'0 0.1
2017-Oct-12 10:29N 34°42' E 135°15'0 0.0
2017-Oct-12 09:59N 34°42' E 135°15'0 0.0
2017-Oct-12 09:05N 34°42' E 135°15'0 0.0
2017-Oct-12 08:59N 34°42' E 135°15'0 0.0
2017-Oct-12 08:17N 34°42' E 135°15'0 0.0
2017-Oct-12 07:54N 34°42' E 135°15'3 7.3
2017-Oct-12 07:30N 34°39' E 135°16'611.5
2017-Oct-12 07:00N 34°34' E 135°18'3 0.6
2017-Oct-12 01:48N 34°32' E 135°21'411.9
2017-Oct-12 01:29N 34°35' E 135°22'3 6.4
2017-Oct-12 01:01N 34°37' E 135°26'0 0.1
2017-Oct-12 00:30N 34°37' E 135°26'0 0.0
2017-Oct-12 00:00N 34°37' E 135°26'0 0.1
2017-Oct-11 23:30N 34°37' E 135°26'0 0.0
2017-Oct-11 17:56N 34°37' E 135°26'25 0.7
2017-Oct-10 04:19N 34°38' E 134°55'513.7
2017-Oct-10 03:57N 34°37' E 135°01'512.2
2017-Oct-10 03:30N 34°35' E 135°07'511.0
2017-Oct-10 03:00N 34°33' E 135°13'711.7
2017-Oct-10 02:23N 34°29' E 135°20'1 0.2
2017-Oct-09 20:30N 34°28' E 135°21'510.1
2017-Oct-09 20:00N 34°30' E 135°16'611.4
2017-Oct-09 19:30N 34°32' E 135°10'713.5
2017-Oct-09 19:00N 34°36' E 135°03'713.3
2017-Oct-09 18:29N 34°37' E 134°55'2 0.2
2017-Oct-09 07:17N 34°38' E 134°57'4 9.3
2017-Oct-09 06:53N 34°37' E 135°01'3 7.5
2017-Oct-09 06:30N 34°36' E 135°04'510.8
2017-Oct-09 06:00N 34°38' E 135°11'4 8.9
2017-Oct-09 05:30N 34°41' E 135°15'  
Track history (hours):
 
Tides and Currents Weather Stations Pressure Air Temp Water Temp Dewpoint Dewpoint Depression Visibility Wind Speed Wind Dir Waves Ship Positions

Shinkyo Maru No.3

Last reported at 2017-Oct-19 04:58 UTC. Time now 2017-Oct-19 14:29 UTC.
Position N 34°38' E 134°56'.

Length 55 m; draft 3 m.

Type: Cargo ship. MMSI: 431003752.

Date/timePositionNaut miles runAvg speedWind from/ knotsBaromVisibWave heightAir tempDewpointWater temp
2017-Oct-19 04:58N 34°38' E 134°56'5 9.3
2017-Oct-19 04:27N 34°37' E 135°02'4 8.9
2017-Oct-19 04:01N 34°37' E 135°06'612.0
2017-Oct-19 03:30N 34°38' E 135°13'612.1
2017-Oct-19 03:00N 34°40' E 135°20'4 7.7
2017-Oct-19 02:30N 34°42' E 135°24'0 0.0
2017-Oct-18 19:53N 34°42' E 135°24'0 0.7
2017-Oct-18 19:30N 34°42' E 135°24'4 8.6
2017-Oct-18 19:00N 34°39' E 135°20'5 9.9
2017-Oct-18 18:30N 34°37' E 135°14'5 9.9
2017-Oct-18 18:00N 34°35' E 135°09'511.0
2017-Oct-18 17:30N 34°36' E 135°02'5 0.5
2017-Oct-18 06:49N 34°38' E 134°56'411.5
2017-Oct-18 06:27N 34°37' E 135°01'510.6
2017-Oct-18 06:00N 34°37' E 135°07'612.2
2017-Oct-18 05:30N 34°38' E 135°14'5 9.1
2017-Oct-18 05:00N 34°42' E 135°15'0 0.0
2017-Oct-18 04:21N 34°42' E 135°15'0 0.0
2017-Oct-18 03:52N 34°42' E 135°15'0 0.0
2017-Oct-18 03:28N 34°42' E 135°15'0 0.0
2017-Oct-18 02:52N 34°42' E 135°15'0 0.0
2017-Oct-18 02:28N 34°42' E 135°15'0 0.0
2017-Oct-18 01:58N 34°42' E 135°15'0 0.0
2017-Oct-18 01:27N 34°42' E 135°15'0 0.0
2017-Oct-18 00:58N 34°42' E 135°15'0 0.0
2017-Oct-18 00:28N 34°42' E 135°15'0 0.0
2017-Oct-17 23:52N 34°42' E 135°15'0 0.0
2017-Oct-17 23:28N 34°42' E 135°15'0 0.0
2017-Oct-17 22:58N 34°42' E 135°15'0 0.0
2017-Oct-17 22:22N 34°42' E 135°15'0 0.0
2017-Oct-17 21:46N 34°42' E 135°15'0 0.0
2017-Oct-17 21:16N 34°42' E 135°15'0 0.0
2017-Oct-17 20:58N 34°42' E 135°15'0 0.0
2017-Oct-17 20:22N 34°42' E 135°15'0 0.0
2017-Oct-17 19:58N 34°42' E 135°15'0 0.0
2017-Oct-17 19:28N 34°42' E 135°15'0 0.0
2017-Oct-17 18:58N 34°42' E 135°15'0 0.0
2017-Oct-17 18:22N 34°42' E 135°15'0 0.0
2017-Oct-17 17:58N 34°42' E 135°15'0 0.0
2017-Oct-17 17:28N 34°42' E 135°15'0 0.0
2017-Oct-17 16:51N 34°42' E 135°15'0 0.0
2017-Oct-17 16:27N 34°42' E 135°15'0 0.0
2017-Oct-17 15:57N 34°42' E 135°15'0 0.3
2017-Oct-17 15:30N 34°42' E 135°15'4 8.4
2017-Oct-17 15:00N 34°38' E 135°15'510.6
2017-Oct-17 14:30N 34°36' E 135°09'510.6
2017-Oct-17 14:00N 34°36' E 135°02'611.9
2017-Oct-17 13:28N 34°37' E 134°55'1 0.1
2017-Oct-17 05:17N 34°38' E 134°56'510.6
2017-Oct-17 04:50N 34°37' E 135°02'3 8.5
2017-Oct-17 04:29N 34°36' E 135°05'511.4
2017-Oct-17 04:00N 34°37' E 135°12'911.7
2017-Oct-17 03:12N 34°36' E 135°23'211.8
2017-Oct-17 03:00N 34°35' E 135°26'0 0.4
2017-Oct-17 01:52N 34°35' E 135°26'3 8.2
2017-Oct-17 01:30N 34°38' E 135°24'1 1.9
2017-Oct-17 00:47N 34°37' E 135°25'0 0.0
2017-Oct-16 23:57N 34°37' E 135°25'0 0.0
2017-Oct-16 23:30N 34°37' E 135°25'0 0.0
2017-Oct-16 22:59N 34°37' E 135°25'0 0.0
2017-Oct-16 22:13N 34°37' E 135°25'0 0.0
2017-Oct-16 21:55N 34°37' E 135°25'0 0.0
2017-Oct-16 18:59N 34°37' E 135°25'0 0.0
2017-Oct-16 18:30N 34°37' E 135°25'1 2.8
2017-Oct-16 18:00N 34°38' E 135°24'510.0
2017-Oct-16 17:30N 34°36' E 135°18'510.8
2017-Oct-16 17:00N 34°35' E 135°12'612.1
2017-Oct-16 16:31N 34°35' E 135°04'812.9
2017-Oct-16 15:55N 34°37' E 134°55'613.0
2017-Oct-16 15:29N 34°40' E 134°50'6 0.7
2017-Oct-16 07:03N 34°38' E 134°56'212.9
2017-Oct-16 06:55N 34°38' E 134°58'512.4
2017-Oct-16 06:30N 34°36' E 135°04'611.6
2017-Oct-16 06:00N 34°37' E 135°11'5 9.1
2017-Oct-16 05:30N 34°41' E 135°15'1 1.9
2017-Oct-16 04:45N 34°42' E 135°15'0 0.0
2017-Oct-16 04:27N 34°42' E 135°15'0 0.0
2017-Oct-16 03:57N 34°42' E 135°15'0 0.0
2017-Oct-16 03:21N 34°42' E 135°15'0 0.0
2017-Oct-16 02:57N 34°42' E 135°15'0 0.0
2017-Oct-16 02:15N 34°42' E 135°15'0 0.0
2017-Oct-16 02:00N 34°42' E 135°15'0 0.0
2017-Oct-16 01:30N 34°42' E 135°15'0 0.0
2017-Oct-16 01:00N 34°42' E 135°15'1 2.6
2017-Oct-16 00:30N 34°41' E 135°15'5 8.9
2017-Oct-16 00:00N 34°37' E 135°13'5 9.8
2017-Oct-15 23:30N 34°35' E 135°07'510.0
2017-Oct-15 23:00N 34°37' E 135°02'6 9.7
2017-Oct-15 22:23N 34°37' E 134°54'  
2017-Oct-13 06:33N 34°38' E 134°57'215.3
2017-Oct-13 06:27N 34°38' E 134°59'613.5
2017-Oct-13 05:58N 34°36' E 135°06'611.9
2017-Oct-13 05:30N 34°35' E 135°13'911.0
2017-Oct-13 04:40N 34°31' E 135°24'0 0.1
2017-Oct-13 04:29N 34°31' E 135°24'0 0.0
2017-Oct-13 04:00N 34°31' E 135°24'0 0.0
2017-Oct-13 03:30N 34°31' E 135°24'0 0.0
2017-Oct-13 03:00N 34°31' E 135°24'0 0.4
2017-Oct-13 02:30N 34°31' E 135°23'1 1.2
2017-Oct-13 02:00N 34°32' E 135°23'0 0.1
2017-Oct-13 01:30N 34°32' E 135°23'4 7.3
2017-Oct-13 01:00N 34°35' E 135°22'4 2.0
2017-Oct-12 23:06N 34°37' E 135°26'0 0.0
2017-Oct-12 23:00N 34°37' E 135°26'0 0.0
2017-Oct-12 22:30N 34°37' E 135°26'0 0.0
2017-Oct-12 21:54N 34°37' E 135°26'0 0.0
2017-Oct-12 21:30N 34°37' E 135°26'0 0.0
2017-Oct-12 21:00N 34°37' E 135°26'0 0.0
2017-Oct-12 20:18N 34°37' E 135°26'0 0.0
2017-Oct-12 19:54N 34°37' E 135°26'0 0.0
2017-Oct-12 19:24N 34°37' E 135°26'0 0.0
2017-Oct-12 19:00N 34°37' E 135°26'0 0.0
2017-Oct-12 18:18N 34°37' E 135°26'0 0.0
2017-Oct-12 17:54N 34°37' E 135°26'0 0.0
2017-Oct-12 17:30N 34°37' E 135°26'0 0.0
2017-Oct-12 17:00N 34°37' E 135°26'0 0.0
2017-Oct-12 16:30N 34°37' E 135°26'0 0.1
2017-Oct-12 16:00N 34°37' E 135°26'0 0.1
2017-Oct-12 15:12N 34°37' E 135°26'0 0.0
2017-Oct-12 14:54N 34°37' E 135°26'1 2.0
2017-Oct-12 14:30N 34°37' E 135°25'510.7
2017-Oct-12 14:00N 34°40' E 135°19'4 7.9
2017-Oct-12 13:30N 34°42' E 135°15'0 0.0
2017-Oct-12 12:59N 34°42' E 135°15'0 0.0
2017-Oct-12 12:29N 34°42' E 135°15'0 0.0
2017-Oct-12 11:53N 34°42' E 135°15'0 0.0
2017-Oct-12 11:29N 34°42' E 135°15'0 0.0
2017-Oct-12 10:35N 34°42' E 135°15'0 0.1
2017-Oct-12 10:29N 34°42' E 135°15'0 0.0
2017-Oct-12 09:59N 34°42' E 135°15'0 0.0
2017-Oct-12 09:05N 34°42' E 135°15'0 0.0
2017-Oct-12 08:59N 34°42' E 135°15'0 0.0
2017-Oct-12 08:17N 34°42' E 135°15'0 0.0
2017-Oct-12 07:54N 34°42' E 135°15'3 7.3
2017-Oct-12 07:30N 34°39' E 135°16'611.5
2017-Oct-12 07:00N 34°34' E 135°18'3 0.6
2017-Oct-12 01:48N 34°32' E 135°21'411.9
2017-Oct-12 01:29N 34°35' E 135°22'3 6.4
2017-Oct-12 01:01N 34°37' E 135°26'0 0.1
2017-Oct-12 00:30N 34°37' E 135°26'0 0.0
2017-Oct-12 00:00N 34°37' E 135°26'0 0.1
2017-Oct-11 23:30N 34°37' E 135°26'0 0.0
2017-Oct-11 17:56N 34°37' E 135°26'25 0.7
2017-Oct-10 04:19N 34°38' E 134°55'513.7
2017-Oct-10 03:57N 34°37' E 135°01'512.2
2017-Oct-10 03:30N 34°35' E 135°07'511.0
2017-Oct-10 03:00N 34°33' E 135°13'711.7
2017-Oct-10 02:23N 34°29' E 135°20'1 0.2
2017-Oct-09 20:30N 34°28' E 135°21'510.1
2017-Oct-09 20:00N 34°30' E 135°16'611.4
2017-Oct-09 19:30N 34°32' E 135°10'713.5
2017-Oct-09 19:00N 34°36' E 135°03'713.3
2017-Oct-09 18:29N 34°37' E 134°55'2 0.2
2017-Oct-09 07:17N 34°38' E 134°57'4 9.3
2017-Oct-09 06:53N 34°37' E 135°01'3 7.5
2017-Oct-09 06:30N 34°36' E 135°04'510.8
2017-Oct-09 06:00N 34°38' E 135°11'4 8.9
2017-Oct-09 05:30N 34°41' E 135°15'  

Dump ship's entire track history